createdAt,value
2023-02-11T00:00:16.540Z,36.70
2023-02-11T00:02:46.127Z,35.43
2023-02-11T00:05:14.435Z,36.00
2023-02-11T00:07:41.020Z,36.63
2023-02-11T00:10:08.213Z,38.47
2023-02-11T00:12:36.352Z,38.47
2023-02-11T00:15:03.920Z,37.70
2023-02-11T00:17:30.417Z,36.63
2023-02-11T00:19:56.863Z,38.97
2023-02-11T00:22:23.552Z,38.93
2023-02-11T00:24:50.066Z,38.07
2023-02-11T00:27:16.872Z,39.47
2023-02-11T00:29:44.715Z,39.13
2023-02-11T00:32:11.694Z,38.87
2023-02-11T00:34:38.609Z,40.87
2023-02-11T00:37:05.906Z,40.53
2023-02-11T00:39:33.435Z,40.30
2023-02-11T00:42:00.110Z,40.77
2023-02-11T00:44:27.411Z,40.93
2023-02-11T00:46:54.289Z,40.33
2023-02-11T00:49:20.764Z,41.33
2023-02-11T00:51:48.294Z,41.53
2023-02-11T00:54:14.884Z,41.83
2023-02-11T00:56:41.506Z,43.23
2023-02-11T00:59:08.088Z,44.10
2023-02-11T01:01:35.493Z,42.57
2023-02-11T01:04:02.028Z,42.07
2023-02-11T01:06:28.474Z,43.77
2023-02-11T01:08:54.894Z,44.07
2023-02-11T01:11:21.550Z,43.33
2023-02-11T01:13:49.168Z,42.93
2023-02-11T01:16:15.938Z,44.57
2023-02-11T01:18:44.275Z,44.03
2023-02-11T01:21:11.925Z,44.27
2023-02-11T01:23:38.424Z,46.50
2023-02-11T01:26:05.314Z,47.27
2023-02-11T01:28:31.892Z,46.70
2023-02-11T01:31:01.048Z,44.40
2023-02-11T01:33:28.276Z,46.00
2023-02-11T01:35:54.736Z,45.13
2023-02-11T01:38:26.159Z,47.87
2023-02-11T01:41:02.593Z,46.97
2023-02-11T01:43:36.999Z,46.97
2023-02-11T01:46:14.585Z,46.93
2023-02-11T01:48:45.512Z,46.60
2023-02-11T01:51:27.301Z,47.63
2023-02-11T01:54:15.685Z,45.40
2023-02-11T01:57:05.328Z,45.10
2023-02-11T01:59:38.184Z,44.67
2023-02-11T02:02:09.518Z,46.03
2023-02-11T02:04:49.047Z,46.63
2023-02-11T02:07:26.296Z,44.83
2023-02-11T02:10:00.355Z,47.93
2023-02-11T02:12:28.473Z,45.43
2023-02-11T02:15:31.558Z,47.07
2023-02-11T02:18:06.503Z,44.37
2023-02-11T02:20:39.203Z,47.50
2023-02-11T02:23:24.931Z,46.93
2023-02-11T02:26:17.624Z,45.30
2023-02-11T02:29:09.305Z,47.07
2023-02-11T02:31:41.767Z,45.27
2023-02-11T02:34:18.338Z,46.90
2023-02-11T02:36:54.244Z,48.60
2023-02-11T02:39:26.724Z,45.40
2023-02-11T02:41:54.308Z,44.93
2023-02-11T02:44:21.637Z,45.57
2023-02-11T02:46:48.100Z,45.73
2023-02-11T02:49:16.375Z,44.87
2023-02-11T02:51:53.643Z,43.83
2023-02-11T02:54:48.194Z,45.07
2023-02-11T02:57:38.679Z,44.23
2023-02-11T03:00:11.253Z,42.13
2023-02-11T03:03:02.236Z,42.73
2023-02-11T03:05:47.035Z,44.60
2023-02-11T03:08:38.747Z,43.33
2023-02-11T03:11:06.407Z,43.43
2023-02-11T03:13:35.511Z,44.63
2023-02-11T03:16:08.785Z,42.50
2023-02-11T03:18:37.131Z,44.37
2023-02-11T03:21:07.042Z,43.30
2023-02-11T03:23:39.943Z,43.93
2023-02-11T03:26:17.256Z,42.73
2023-02-11T03:28:56.083Z,43.67
2023-02-11T03:31:34.126Z,41.87
2023-02-11T03:34:25.065Z,44.97
2023-02-11T03:36:56.944Z,43.97
2023-02-11T03:39:29.395Z,43.20
2023-02-11T03:41:58.600Z,44.97
2023-02-11T03:44:30.757Z,45.70
2023-02-11T03:46:57.969Z,44.67
2023-02-11T03:49:27.855Z,46.07
2023-02-11T03:51:56.457Z,43.07
2023-02-11T03:54:30.486Z,46.00
2023-02-11T03:57:00.328Z,44.80
2023-02-11T03:59:28.514Z,44.57
2023-02-11T04:01:55.225Z,44.30
2023-02-11T04:04:21.852Z,45.97
2023-02-11T04:06:48.281Z,43.93
2023-02-11T04:09:15.213Z,45.40
2023-02-11T04:11:41.856Z,47.20
2023-02-11T04:14:08.595Z,46.00
2023-02-11T04:16:35.208Z,48.53
2023-02-11T04:19:02.713Z,45.90
2023-02-11T04:21:29.160Z,48.50
2023-02-11T04:23:55.581Z,45.37
2023-02-11T04:26:21.993Z,46.63
2023-02-11T04:28:48.476Z,45.80
2023-02-11T04:31:15.004Z,47.63
2023-02-11T04:33:41.635Z,44.93
2023-02-11T04:36:08.423Z,46.93
2023-02-11T04:38:34.848Z,45.60
2023-02-11T04:41:01.303Z,45.90
2023-02-11T04:43:27.739Z,47.20
2023-02-11T04:45:58.614Z,43.53
2023-02-11T04:48:25.774Z,44.07
2023-02-11T04:50:52.185Z,44.57
2023-02-11T04:53:18.616Z,46.63
2023-02-11T04:55:45.282Z,44.80
2023-02-11T04:58:11.916Z,44.50
2023-02-11T05:00:38.393Z,45.57
2023-02-11T05:03:04.784Z,42.83
2023-02-11T05:05:31.190Z,43.37
2023-02-11T05:07:57.580Z,43.33
2023-02-11T05:10:24.077Z,44.73
2023-02-11T05:12:50.541Z,43.20
2023-02-11T05:15:17.057Z,41.20
2023-02-11T05:17:43.514Z,42.63
2023-02-11T05:20:10.761Z,43.57
2023-02-11T05:22:37.179Z,42.00
2023-02-11T05:25:03.796Z,42.37
2023-02-11T05:27:30.188Z,41.67
2023-02-11T05:29:56.592Z,40.67
2023-02-11T05:32:23.055Z,41.63
2023-02-11T05:34:49.478Z,41.80
2023-02-11T05:37:16.190Z,40.57
2023-02-11T05:39:42.659Z,40.20
2023-02-11T05:42:09.541Z,39.83
2023-02-11T05:44:36.137Z,39.63
2023-02-11T05:47:02.966Z,38.47
2023-02-11T05:49:29.559Z,40.50
2023-02-11T05:51:56.095Z,40.43
2023-02-11T05:54:22.518Z,40.63
2023-02-11T05:56:48.945Z,40.97
2023-02-11T05:59:15.451Z,40.70
2023-02-11T06:01:42.823Z,39.13
2023-02-11T06:04:09.680Z,39.90
2023-02-11T06:06:36.089Z,40.60
2023-02-11T06:09:02.710Z,38.80
2023-02-11T06:11:29.107Z,38.53
2023-02-11T06:13:55.936Z,38.23
2023-02-11T06:16:22.431Z,37.97
2023-02-11T06:18:48.868Z,39.17
2023-02-11T06:21:15.273Z,38.40
2023-02-11T06:23:41.963Z,38.03
2023-02-11T06:26:20.401Z,38.90
2023-02-11T06:28:47.149Z,37.07
2023-02-11T06:31:14.459Z,37.40
2023-02-11T06:33:41.439Z,37.60
2023-02-11T06:36:25.841Z,37.10
2023-02-11T06:38:52.505Z,37.27
2023-02-11T06:41:23.036Z,36.33
2023-02-11T06:43:49.852Z,37.20
2023-02-11T06:46:16.425Z,37.07
2023-02-11T06:48:44.965Z,36.33
2023-02-11T06:51:13.337Z,35.30
2023-02-11T06:53:45.306Z,37.37
2023-02-11T06:56:16.169Z,36.43
2023-02-11T06:58:42.750Z,35.13
2023-02-11T07:01:12.398Z,37.33
2023-02-11T07:03:43.025Z,36.03
2023-02-11T07:06:14.120Z,37.90
2023-02-11T07:08:43.436Z,36.10
2023-02-11T07:11:19.043Z,34.77
2023-02-11T07:13:46.006Z,35.07
2023-02-11T07:16:14.991Z,35.23
2023-02-11T07:18:42.115Z,34.63
2023-02-11T07:21:10.993Z,34.90
2023-02-11T07:23:39.469Z,34.30
2023-02-11T07:26:07.601Z,35.37
2023-02-11T07:28:35.539Z,35.60
2023-02-11T07:31:22.593Z,33.27
2023-02-11T07:33:49.634Z,33.80
2023-02-11T07:36:16.625Z,34.93
2023-02-11T07:38:43.715Z,34.50
2023-02-11T07:41:13.649Z,34.40
2023-02-11T07:43:41.209Z,34.23
2023-02-11T07:46:13.044Z,36.10
2023-02-11T07:48:39.730Z,34.23
2023-02-11T07:51:09.917Z,33.90
2023-02-11T07:53:36.649Z,34.10
2023-02-11T07:56:05.089Z,33.63
2023-02-11T07:58:31.536Z,33.50
2023-02-11T08:01:03.147Z,34.90
2023-02-11T08:03:29.754Z,35.00
2023-02-11T08:05:56.527Z,33.00
2023-02-11T08:08:23.206Z,33.13
2023-02-11T08:10:49.943Z,34.20
2023-02-11T08:13:16.528Z,33.20
2023-02-11T08:15:43.876Z,35.70
2023-02-11T08:18:10.601Z,33.10
2023-02-11T08:20:37.139Z,34.50
2023-02-11T08:23:06.468Z,33.23
2023-02-11T08:25:33.291Z,33.17
2023-02-11T08:27:59.899Z,35.00
2023-02-11T08:30:27.536Z,34.03
2023-02-11T08:32:54.060Z,32.80
2023-02-11T08:35:20.506Z,34.10
2023-02-11T08:37:46.914Z,32.17
2023-02-11T08:40:13.714Z,33.93
2023-02-11T08:42:40.149Z,32.03
2023-02-11T08:45:07.195Z,33.13
2023-02-11T08:47:33.657Z,32.33
2023-02-11T08:50:00.140Z,33.17
2023-02-11T08:52:27.327Z,31.83
2023-02-11T08:54:53.807Z,33.37
2023-02-11T08:57:20.238Z,33.77
2023-02-11T08:59:46.739Z,32.73
2023-02-11T09:02:14.132Z,32.73
2023-02-11T09:04:41.099Z,34.83
2023-02-11T09:07:07.597Z,33.77
2023-02-11T09:09:34.007Z,33.37
2023-02-11T09:12:03.161Z,32.33
2023-02-11T09:14:29.620Z,33.30
2023-02-11T09:16:56.140Z,32.33
2023-02-11T09:19:23.172Z,32.67
2023-02-11T09:21:49.860Z,32.93
2023-02-11T09:24:16.472Z,33.17
2023-02-11T09:26:44.444Z,33.63
2023-02-11T09:29:12.725Z,32.03
2023-02-11T09:31:39.402Z,33.00
2023-02-11T09:34:06.478Z,34.60
2023-02-11T09:36:37.545Z,34.00
2023-02-11T09:39:06.121Z,33.73
2023-02-11T09:41:48.307Z,33.07
2023-02-11T09:44:22.276Z,32.87
2023-02-11T09:46:59.541Z,33.37
2023-02-11T09:49:35.378Z,34.23
2023-02-11T09:52:13.861Z,34.33
2023-02-11T09:55:06.235Z,34.50
2023-02-11T09:57:35.514Z,34.13
2023-02-11T10:00:17.005Z,33.97
2023-02-11T10:03:34.429Z,35.07
2023-02-11T10:06:14.492Z,36.17
2023-02-11T10:08:59.805Z,34.23
2023-02-11T10:11:44.034Z,34.50
2023-02-11T10:14:23.835Z,34.40
2023-02-11T10:17:02.908Z,35.70
2023-02-11T10:19:42.763Z,36.07
2023-02-11T10:22:22.243Z,34.97
2023-02-11T10:24:53.803Z,36.03
2023-02-11T10:27:24.388Z,35.67
2023-02-11T10:30:02.584Z,36.23
2023-02-11T10:33:03.206Z,36.10
2023-02-11T10:35:30.014Z,34.80
2023-02-11T10:37:56.690Z,35.30
2023-02-11T10:40:26.055Z,34.13
2023-02-11T10:42:59.277Z,35.30
2023-02-11T10:45:39.098Z,35.53
2023-02-11T10:48:26.511Z,36.27
2023-02-11T10:51:17.440Z,37.03
2023-02-11T10:53:45.816Z,37.53
2023-02-11T10:56:25.380Z,35.77
2023-02-11T10:59:02.704Z,37.17
2023-02-11T11:01:43.567Z,36.93
2023-02-11T11:04:29.784Z,36.13
2023-02-11T11:07:17.648Z,34.63
2023-02-11T11:09:51.456Z,35.63
2023-02-11T11:12:34.979Z,37.13
2023-02-11T11:15:11.233Z,35.73
2023-02-11T11:17:38.376Z,33.07
2023-02-11T11:20:18.843Z,36.20
2023-02-11T11:22:47.183Z,35.70
2023-02-11T11:25:42.836Z,35.00
2023-02-11T11:28:21.650Z,34.50
2023-02-11T11:30:49.117Z,32.33
2023-02-11T11:33:35.886Z,33.40
2023-02-11T11:36:08.736Z,33.83
2023-02-11T11:38:38.510Z,30.73
2023-02-11T11:41:25.140Z,30.73
2023-02-11T11:44:20.842Z,30.57
2023-02-11T11:46:53.553Z,30.80
2023-02-11T11:49:28.422Z,28.97
2023-02-11T11:52:10.227Z,28.07
2023-02-11T11:54:37.331Z,29.07
2023-02-11T11:57:15.365Z,28.27
2023-02-11T11:59:42.405Z,27.60
2023-02-11T12:02:33.847Z,28.33
2023-02-11T12:05:14.364Z,27.27
2023-02-11T12:07:58.689Z,28.10
2023-02-11T12:10:55.586Z,28.27
2023-02-11T12:13:41.366Z,27.07
2023-02-11T12:16:23.698Z,27.53
2023-02-11T12:19:26.995Z,27.30
2023-02-11T12:22:23.244Z,26.60
2023-02-11T12:25:26.622Z,26.53
2023-02-11T12:28:01.948Z,26.67
2023-02-11T12:30:59.321Z,26.13
2023-02-11T12:33:47.504Z,27.80
2023-02-11T12:36:14.021Z,26.50
2023-02-11T12:38:58.261Z,27.30
2023-02-11T12:41:58.651Z,27.90
2023-02-11T12:44:55.873Z,26.57
2023-02-11T12:47:40.217Z,26.77
2023-02-11T12:50:24.733Z,26.80
2023-02-11T12:53:10.006Z,26.67
2023-02-11T12:55:45.805Z,27.63
2023-02-11T12:58:21.759Z,26.20
2023-02-11T13:00:57.888Z,29.47
2023-02-11T13:03:38.524Z,26.70
2023-02-11T13:06:09.318Z,26.53
2023-02-11T13:08:40.988Z,27.10
2023-02-11T13:11:14.819Z,26.80
2023-02-11T13:14:15.874Z,26.93
2023-02-11T13:16:50.892Z,25.97
2023-02-11T13:19:40.817Z,26.50
2023-02-11T13:22:16.479Z,25.50
2023-02-11T13:25:02.226Z,25.47
2023-02-11T13:27:44.408Z,26.73
2023-02-11T13:30:35.219Z,27.03
2023-02-11T13:33:04.214Z,27.20
2023-02-11T13:35:34.981Z,27.20
2023-02-11T13:38:04.617Z,26.77
2023-02-11T13:40:39.641Z,28.17
2023-02-11T13:43:19.902Z,28.07
2023-02-11T13:45:49.085Z,27.77
2023-02-11T13:48:17.611Z,27.90
2023-02-11T13:50:56.798Z,28.60
2023-02-11T13:53:24.156Z,27.43
2023-02-11T13:55:54.428Z,26.80
2023-02-11T13:58:26.754Z,27.13
2023-02-11T14:00:53.588Z,29.23
2023-02-11T14:03:38.894Z,27.00
2023-02-11T14:06:26.980Z,27.93
2023-02-11T14:09:17.143Z,27.20
2023-02-11T14:11:51.955Z,27.80
2023-02-11T14:14:24.539Z,29.00
2023-02-11T14:17:00.311Z,28.50
2023-02-11T14:19:43.697Z,27.23
2023-02-11T14:22:10.144Z,27.87
2023-02-11T14:24:37.239Z,27.97
2023-02-11T14:27:10.780Z,28.50
2023-02-11T14:29:43.934Z,27.60
2023-02-11T14:32:38.066Z,28.47
2023-02-11T14:35:20.569Z,27.30
2023-02-11T14:38:02.126Z,28.53
2023-02-11T14:40:57.248Z,27.43
2023-02-11T14:43:51.444Z,28.87
2023-02-11T14:46:19.787Z,28.90
2023-02-11T14:48:53.368Z,29.27
2023-02-11T14:51:23.574Z,29.57
2023-02-11T14:53:52.737Z,29.13
2023-02-11T14:56:24.554Z,28.53
2023-02-11T14:58:51.891Z,29.10
2023-02-11T15:01:26.025Z,28.70
2023-02-11T15:03:54.545Z,28.13
2023-02-11T15:06:32.600Z,29.83
2023-02-11T15:09:40.125Z,28.37
2023-02-11T15:12:15.673Z,27.77
2023-02-11T15:14:48.070Z,28.17
2023-02-11T15:17:22.194Z,27.80
2023-02-11T15:19:53.156Z,30.73
2023-02-11T15:22:24.700Z,29.27
2023-02-11T15:25:06.300Z,28.87
2023-02-11T15:27:41.366Z,29.30
2023-02-11T15:30:33.845Z,28.27
2023-02-11T15:33:03.849Z,28.07
2023-02-11T15:35:37.933Z,28.67
2023-02-11T15:38:05.251Z,29.43
2023-02-11T15:40:34.358Z,29.47
2023-02-11T15:43:09.548Z,29.93
2023-02-11T15:45:40.258Z,28.77
2023-02-11T15:48:17.561Z,28.57
2023-02-11T15:50:51.588Z,28.63
2023-02-11T15:53:27.284Z,27.40
2023-02-11T15:56:03.324Z,29.60
2023-02-11T15:58:35.416Z,28.23
2023-02-11T16:01:03.217Z,28.70
2023-02-11T16:03:32.606Z,27.33
2023-02-11T16:06:23.783Z,26.93
2023-02-11T16:09:08.252Z,30.37
2023-02-11T16:11:55.453Z,29.90
2023-02-11T16:14:27.915Z,28.00
2023-02-11T16:16:58.237Z,27.93
2023-02-11T16:19:26.382Z,28.50
2023-02-11T16:21:54.836Z,26.80
2023-02-11T16:24:27.931Z,27.27
2023-02-11T16:26:57.368Z,28.03
2023-02-11T16:29:36.461Z,28.17
2023-02-11T16:32:10.700Z,27.53
2023-02-11T16:34:37.277Z,26.97
2023-02-11T16:37:05.372Z,27.47
2023-02-11T16:39:32.474Z,27.57
2023-02-11T16:41:59.984Z,29.03
2023-02-11T16:44:26.670Z,27.50
2023-02-11T16:46:54.860Z,26.23
2023-02-11T16:49:24.428Z,26.40
2023-02-11T16:52:01.350Z,26.30
2023-02-11T16:54:29.550Z,24.20
2023-02-11T16:56:56.864Z,25.13
2023-02-11T16:59:23.869Z,26.00
2023-02-11T17:01:52.833Z,26.03
2023-02-11T17:04:28.264Z,25.03
2023-02-11T17:06:57.231Z,24.00
2023-02-11T17:09:30.240Z,23.57
2023-02-11T17:11:57.628Z,24.50
2023-02-11T17:14:24.536Z,23.67
2023-02-11T17:16:51.033Z,24.70
2023-02-11T17:19:21.070Z,24.37
2023-02-11T17:21:50.846Z,24.47
2023-02-11T17:24:18.244Z,25.07
2023-02-11T17:26:46.051Z,26.40
2023-02-11T17:29:16.689Z,24.37
2023-02-11T17:31:44.097Z,25.43
2023-02-11T17:34:11.530Z,23.93
2023-02-11T17:36:38.186Z,23.60
2023-02-11T17:39:07.796Z,22.67
2023-02-11T17:41:34.791Z,22.93
2023-02-11T17:44:01.473Z,22.03
2023-02-11T17:46:28.589Z,22.30
2023-02-11T17:48:58.575Z,22.40
2023-02-11T17:51:29.103Z,22.97
2023-02-11T17:53:58.415Z,21.87
2023-02-11T17:56:25.263Z,21.37
2023-02-11T17:58:53.000Z,21.27
2023-02-11T18:01:20.295Z,20.73
2023-02-11T18:03:47.488Z,20.27
2023-02-11T18:06:14.426Z,20.60
2023-02-11T18:08:42.956Z,19.77
2023-02-11T18:11:10.981Z,26.07
2023-02-11T18:13:37.426Z,23.00
2023-02-11T18:16:05.797Z,20.13
2023-02-11T18:18:32.226Z,19.13
2023-02-11T18:21:00.717Z,17.20
2023-02-11T18:23:27.973Z,19.30
2023-02-11T18:25:54.420Z,20.00
2023-02-11T18:28:21.046Z,16.77
2023-02-11T18:30:47.972Z,15.23
2023-02-11T18:33:14.624Z,15.97
2023-02-11T18:35:44.936Z,15.00
2023-02-11T18:38:11.636Z,15.73
2023-02-11T18:40:41.825Z,15.63
2023-02-11T18:43:08.230Z,15.97
2023-02-11T18:45:34.742Z,15.97
2023-02-11T18:48:03.568Z,16.83
2023-02-11T18:50:30.958Z,16.40
2023-02-11T18:52:57.348Z,17.47
2023-02-11T18:55:25.810Z,18.33
2023-02-11T18:57:52.889Z,18.40
2023-02-11T19:00:20.620Z,16.77
2023-02-11T19:02:47.195Z,17.63
2023-02-11T19:05:13.791Z,17.13
2023-02-11T19:07:40.404Z,18.37
2023-02-11T19:10:07.541Z,18.33
2023-02-11T19:12:34.230Z,18.47
2023-02-11T19:15:00.858Z,19.73
2023-02-11T19:17:27.523Z,19.57
2023-02-11T19:19:54.027Z,19.47
2023-02-11T19:22:20.464Z,19.40
2023-02-11T19:24:47.251Z,19.37
2023-02-11T19:27:13.695Z,20.57
2023-02-11T19:29:40.436Z,19.17
2023-02-11T19:32:07.054Z,19.37
2023-02-11T19:34:33.737Z,19.00
2023-02-11T19:37:01.521Z,19.70
2023-02-11T19:39:28.043Z,18.80
2023-02-11T19:41:54.499Z,19.00
2023-02-11T19:44:20.968Z,18.73
2023-02-11T19:46:48.757Z,18.43
2023-02-11T19:49:22.658Z,18.23
2023-02-11T19:51:50.387Z,17.60
2023-02-11T19:54:17.098Z,17.57
2023-02-11T19:56:44.887Z,17.97
2023-02-11T19:59:11.791Z,18.40
2023-02-11T20:01:38.487Z,19.20
2023-02-11T20:04:05.813Z,18.37
2023-02-11T20:06:33.285Z,19.07
2023-02-11T20:09:06.399Z,17.53
2023-02-11T20:11:33.884Z,16.70
2023-02-11T20:14:00.633Z,16.70
2023-02-11T20:16:46.196Z,16.33
2023-02-11T20:19:17.507Z,16.77
2023-02-11T20:21:46.810Z,14.83
2023-02-11T20:24:14.182Z,14.60
2023-02-11T20:26:42.622Z,14.30
2023-02-11T20:29:09.709Z,15.17
2023-02-11T20:31:36.534Z,17.33
2023-02-11T20:34:03.087Z,17.63
2023-02-11T20:36:32.271Z,16.33
2023-02-11T20:39:00.013Z,15.93
2023-02-11T20:41:34.113Z,15.20
2023-02-11T20:44:03.549Z,16.93
2023-02-11T20:46:32.876Z,14.77
2023-02-11T20:49:02.733Z,16.93
2023-02-11T20:51:33.949Z,15.40
2023-02-11T20:54:00.900Z,14.93
2023-02-11T20:56:31.082Z,17.03
2023-02-11T20:58:59.263Z,17.17
2023-02-11T21:01:40.325Z,14.80
2023-02-11T21:04:11.930Z,15.47
2023-02-11T21:06:43.944Z,14.50
2023-02-11T21:09:13.785Z,15.00
2023-02-11T21:11:40.835Z,16.03
2023-02-11T21:14:07.750Z,15.73
2023-02-11T21:16:34.240Z,14.67
2023-02-11T21:19:03.269Z,15.30
2023-02-11T21:21:30.121Z,14.73
2023-02-11T21:23:56.793Z,15.33
2023-02-11T21:26:23.314Z,15.23
2023-02-11T21:28:50.024Z,16.23
2023-02-11T21:31:23.124Z,14.40
2023-02-11T21:33:50.964Z,15.47
2023-02-11T21:36:17.831Z,14.90
2023-02-11T21:38:44.621Z,13.47
2023-02-11T21:41:11.853Z,14.77
2023-02-11T21:43:38.337Z,14.70
2023-02-11T21:46:10.343Z,14.23
2023-02-11T21:48:37.420Z,14.63
2023-02-11T21:51:06.681Z,14.20
2023-02-11T21:53:33.452Z,13.90
2023-02-11T21:56:04.761Z,14.00
2023-02-11T21:58:31.381Z,14.93
2023-02-11T22:00:57.795Z,14.50
2023-02-11T22:03:24.248Z,14.13
2023-02-11T22:05:50.676Z,13.47
2023-02-11T22:08:20.105Z,13.50
2023-02-11T22:10:46.735Z,14.03
2023-02-11T22:13:13.172Z,13.60
2023-02-11T22:15:39.705Z,13.27
2023-02-11T22:18:06.261Z,12.77
2023-02-11T22:20:32.662Z,11.93
2023-02-11T22:22:59.133Z,12.77
2023-02-11T22:25:25.839Z,12.30
2023-02-11T22:27:52.240Z,12.47
2023-02-11T22:30:19.065Z,13.17
2023-02-11T22:32:46.596Z,12.07
2023-02-11T22:35:13.124Z,13.80
2023-02-11T22:37:39.590Z,12.53
2023-02-11T22:40:06.740Z,12.77
2023-02-11T22:42:33.161Z,11.50
2023-02-11T22:44:59.542Z,12.10
2023-02-11T22:47:25.927Z,11.97
2023-02-11T22:49:52.338Z,11.67
2023-02-11T22:52:18.773Z,12.50
2023-02-11T22:54:45.260Z,11.67
2023-02-11T22:57:12.011Z,11.47
2023-02-11T22:59:38.452Z,11.73
2023-02-11T23:02:05.012Z,11.47
2023-02-11T23:04:31.420Z,10.93
2023-02-11T23:06:57.817Z,10.77
2023-02-11T23:09:24.799Z,10.93
2023-02-11T23:11:54.209Z,9.90
2023-02-11T23:14:23.009Z,9.90
2023-02-11T23:16:50.708Z,10.00
2023-02-11T23:19:17.314Z,9.80
2023-02-11T23:21:44.195Z,10.00
2023-02-11T23:24:14.829Z,9.33
2023-02-11T23:26:42.624Z,9.03
2023-02-11T23:29:09.848Z,9.50
2023-02-11T23:31:39.833Z,9.67
2023-02-11T23:34:07.626Z,8.90
2023-02-11T23:36:34.470Z,9.03
2023-02-11T23:39:00.940Z,9.33
2023-02-11T23:41:28.722Z,9.70
2023-02-11T23:43:57.831Z,8.37
2023-02-11T23:46:26.125Z,9.40
2023-02-11T23:48:53.031Z,8.83
2023-02-11T23:51:19.969Z,8.80
2023-02-11T23:53:49.058Z,8.90
2023-02-11T23:56:19.081Z,8.20
2023-02-11T23:58:48.742Z,8.30
